Time;durP1;ratioP1;P1;durP2;ratioP2;P2;SDS_P1;SDS_P2;PMS_P1;PMS_P2;Temp;Humidity;BMP_temperature;BMP_pressure;BME280_temperature;BME280_humidity;BME280_pressure;Samples;Min_cycle;Max_cycle;Signal;HPM_P1;HPM_P2
2023/04/16 00:01:58;;;;;;;5.60;3.15;;;;;;;11.43;68.52;100328.44;10270670;28;20047;-61
2023/04/16 00:07:00;;;;;;;4.13;3.05;;;;;;;11.45;68.23;100321.88;10273014;28;20074;-61
2023/04/16 00:12:01;;;;;;;6.75;4.05;;;;;;;11.46;68.16;100330.78;10259606;28;20071;-61
2023/04/16 00:17:03;;;;;;;5.05;3.05;;;;;;;11.41;68.51;100330.47;10256882;28;20047;-61
2023/04/16 00:22:04;;;;;;;5.43;2.83;;;;;;;11.41;68.59;100325.91;10275327;28;20058;-62
2023/04/16 00:27:06;;;;;;;5.90;3.53;;;;;;;11.47;68.30;100324.38;10270375;28;20055;-61
2023/04/16 00:32:07;;;;;;;6.18;3.40;;;;;;;11.38;68.24;100331.69;10274026;28;20058;-62
2023/04/16 00:37:08;;;;;;;6.45;3.22;;;;;;;11.41;68.54;100330.47;10281431;28;20069;-61
2023/04/16 00:42:10;;;;;;;5.90;3.53;;;;;;;11.37;68.29;100331.88;10278965;28;20162;-62
2023/04/16 00:47:11;;;;;;;6.05;3.10;;;;;;;11.36;68.17;100341.78;10281590;28;20051;-62
2023/04/16 00:52:13;;;;;;;5.80;3.33;;;;;;;11.36;68.65;100332.91;10284470;28;20078;-61
2023/04/16 00:57:14;;;;;;;8.27;4.50;;;;;;;11.35;68.70;100347.34;10264339;28;20101;-62
2023/04/16 01:02:16;;;;;;;6.53;3.75;;;;;;;11.42;68.14;100346.44;10266218;28;20478;-62
2023/04/16 01:07:17;;;;;;;8.77;3.95;;;;;;;11.38;68.04;100355.09;10282348;28;20057;-60
2023/04/16 01:12:19;;;;;;;7.60;3.75;;;;;;;11.44;68.04;100346.28;10282445;28;20059;-61
2023/04/16 01:17:20;;;;;;;7.20;4.13;;;;;;;11.40;68.05;100343.09;10280193;28;20117;-61
2023/04/16 01:22:21;;;;;;;7.57;4.15;;;;;;;11.37;68.37;100362.28;10280897;28;20051;-60
2023/04/16 01:27:23;;;;;;;7.35;3.70;;;;;;;11.38;68.00;100363.97;10279998;28;20066;-60
2023/04/16 01:32:24;;;;;;;7.55;3.78;;;;;;;11.37;68.29;100359.59;10276845;28;20129;-61
2023/04/16 01:37:26;;;;;;;6.90;3.85;;;;;;;11.37;68.35;100373.06;10280607;28;20043;-63
2023/04/16 01:42:27;;;;;;;6.72;3.67;;;;;;;11.36;68.43;100381.34;10280871;28;20101;-62
2023/04/16 01:47:29;;;;;;;7.28;4.05;;;;;;;11.48;68.06;100375.34;10263795;28;20051;-61
2023/04/16 01:52:30;;;;;;;6.38;4.18;;;;;;;11.57;67.51;100377.94;10284022;28;20104;-61
2023/04/16 01:57:31;;;;;;;7.22;3.60;;;;;;;11.49;68.19;100377.03;10281843;28;20046;-60
2023/04/16 02:02:34;;;;;;;6.25;3.80;;;;;;;11.52;67.67;100383.88;10281245;28;20086;-60
2023/04/16 02:07:35;;;;;;;7.07;4.65;;;;;;;11.51;67.65;100380.38;10280493;28;20047;-62
2023/04/16 02:12:36;;;;;;;7.82;4.65;;;;;;;11.54;67.70;100384.53;10282172;28;20068;-60
2023/04/16 02:17:38;;;;;;;8.98;4.90;;;;;;;11.56;67.74;100387.88;10281521;28;20051;-62
2023/04/16 02:22:39;;;;;;;6.97;4.43;;;;;;;11.48;67.54;100396.03;10282052;28;20042;-60
2023/04/16 02:27:41;;;;;;;8.00;4.10;;;;;;;11.43;67.66;100391.22;10279020;28;20067;-60
2023/04/16 02:32:42;;;;;;;7.60;4.85;;;;;;;11.44;68.11;100400.09;10277293;28;20176;-62
2023/04/16 02:37:44;;;;;;;9.00;4.70;;;;;;;11.42;67.59;100391.38;10276998;28;20393;-60
2023/04/16 02:42:45;;;;;;;10.25;5.35;;;;;;;11.44;67.40;100398.25;10278975;28;20117;-61
2023/04/16 02:47:47;;;;;;;10.82;5.35;;;;;;;11.45;67.53;100407.16;10279292;28;20070;-62
2023/04/16 02:52:50;;;;;;;10.15;4.97;;;;;;;11.51;67.66;100407.28;10277649;28;20506;-61
2023/04/16 02:57:52;;;;;;;9.13;5.30;;;;;;;11.49;67.54;100411.16;10277114;28;20121;-61
2023/04/16 03:02:53;;;;;;;8.48;4.25;;;;;;;11.48;67.79;100404.13;10273873;28;20561;-63
2023/04/16 03:07:56;;;;;;;8.90;5.03;;;;;;;11.55;67.60;100413.13;10269634;28;20070;-61
2023/04/16 03:12:57;;;;;;;7.82;5.13;;;;;;;11.57;67.43;100413.81;10278156;28;20137;-60
2023/04/16 03:17:59;;;;;;;13.80;5.97;;;;;;;11.56;67.27;100411.28;10275711;28;20158;-61
2023/04/16 03:23:00;;;;;;;10.48;5.88;;;;;;;11.65;66.98;100411.03;10278618;28;20434;-62
2023/04/16 03:28:02;;;;;;;9.48;4.78;;;;;;;11.62;67.60;100418.63;10263675;28;20059;-60
2023/04/16 03:33:04;;;;;;;11.10;5.30;;;;;;;11.62;67.51;100429.41;10244876;28;20059;-61
2023/04/16 03:38:05;;;;;;;10.25;5.07;;;;;;;11.61;67.57;100438.50;10240088;28;20498;-61
2023/04/16 03:43:06;;;;;;;8.15;5.72;;;;;;;11.60;67.55;100426.88;10243397;28;20174;-64
2023/04/16 03:48:08;;;;;;;10.07;5.88;;;;;;;11.62;67.54;100441.00;10245384;28;20070;-62
2023/04/16 03:53:09;;;;;;;9.45;5.25;;;;;;;11.55;67.18;100418.50;10248249;28;20047;-61
2023/04/16 03:58:11;;;;;;;9.95;5.35;;;;;;;11.48;67.62;100418.41;10240897;28;20146;-64
2023/04/16 04:03:15;;;;;;;10.80;5.63;;;;;;;11.45;67.11;100417.91;10235874;28;20079;-62
2023/04/16 04:08:17;;;;;;;8.77;4.80;;;;;;;11.41;67.58;100428.19;10239571;28;20052;-62
2023/04/16 04:13:19;;;;;;;8.55;5.20;;;;;;;11.38;67.30;100423.19;10251380;28;20083;-62
2023/04/16 04:18:20;;;;;;;8.93;4.63;;;;;;;11.41;67.25;100425.50;10245322;28;20086;-64
2023/04/16 04:23:21;;;;;;;10.23;5.00;;;;;;;11.44;67.16;100430.53;10246312;28;20118;-62
2023/04/16 04:28:23;;;;;;;7.88;4.72;;;;;;;11.42;66.75;100432.59;10246178;28;20078;-62
2023/04/16 04:33:24;;;;;;;8.77;4.70;;;;;;;11.59;66.44;100424.38;10245778;28;20403;-61
2023/04/16 04:38:26;;;;;;;6.30;3.92;;;;;;;11.57;66.38;100435.34;10245286;28;20071;-61
2023/04/16 04:43:27;;;;;;;6.63;4.47;;;;;;;11.58;66.45;100449.63;10252507;28;20523;-61
2023/04/16 04:48:29;;;;;;;5.95;3.88;;;;;;;11.59;66.56;100440.53;10241708;28;20593;-62
2023/04/16 04:53:30;;;;;;;7.40;4.35;;;;;;;11.49;66.38;100449.69;10242217;28;20502;-60
2023/04/16 04:58:31;;;;;;;6.63;3.88;;;;;;;11.55;66.53;100452.66;10241973;28;20076;-60
2023/04/16 05:03:33;;;;;;;6.35;3.53;;;;;;;11.53;66.75;100447.47;10245206;28;20562;-61
2023/04/16 05:08:34;;;;;;;6.88;3.67;;;;;;;11.53;66.42;100460.91;10246420;28;20495;-60
2023/04/16 05:13:36;;;;;;;5.70;3.75;;;;;;;11.60;65.99;100467.28;10244072;28;20082;-59
2023/04/16 05:18:37;;;;;;;7.28;4.13;;;;;;;11.53;66.00;100471.69;10242509;28;20055;-60
2023/04/16 05:23:38;;;;;;;6.03;3.35;;;;;;;11.59;66.44;100472.84;10251680;28;20115;-61
2023/04/16 05:28:40;;;;;;;7.65;3.83;;;;;;;11.75;66.02;100477.25;10229925;28;20141;-62
2023/04/16 05:33:41;;;;;;;5.47;3.28;;;;;;;11.64;66.02;100479.34;10246740;28;20074;-61
2023/04/16 05:38:42;;;;;;;10.45;4.47;;;;;;;11.63;66.33;100485.78;10249471;28;20110;-60
2023/04/16 05:43:44;;;;;;;7.90;4.30;;;;;;;11.71;65.91;100488.41;10245102;28;20138;-62
2023/04/16 05:48:45;;;;;;;7.60;4.07;;;;;;;11.64;66.06;100490.13;10242245;28;20391;-61
2023/04/16 05:53:46;;;;;;;7.80;4.95;;;;;;;11.75;65.96;100498.78;10237176;28;20126;-62
2023/04/16 05:58:48;;;;;;;6.30;3.70;;;;;;;11.87;65.49;100502.78;10247512;28;20130;-59
2023/04/16 06:03:49;;;;;;;8.30;4.15;;;;;;;11.73;65.67;100498.16;10245724;28;20138;-60
2023/04/16 06:08:51;;;;;;;8.63;4.55;;;;;;;11.74;66.19;100503.34;10223799;28;20057;-62
2023/04/16 06:13:52;;;;;;;7.60;3.88;;;;;;;11.97;65.56;100505.25;10245034;28;20047;-60
2023/04/16 06:18:53;;;;;;;6.80;3.45;;;;;;;11.88;65.93;100505.25;10241097;28;20081;-61
2023/04/16 06:23:55;;;;;;;4.30;2.92;;;;;;;11.84;65.55;100503.13;10220611;28;20142;-60
2023/04/16 06:28:56;;;;;;;6.68;3.58;;;;;;;11.78;66.21;100510.06;10248759;28;20161;-60
2023/04/16 06:33:57;;;;;;;6.82;4.03;;;;;;;11.70;65.97;100500.19;10277697;28;20089;-62
2023/04/16 06:38:59;;;;;;;4.60;3.20;;;;;;;11.64;66.26;100503.59;10276107;28;20101;-63
2023/04/16 06:44:00;;;;;;;6.72;3.53;;;;;;;11.60;66.37;100512.22;10275004;28;20054;-62
2023/04/16 06:49:02;;;;;;;5.15;3.47;;;;;;;11.63;66.39;100520.78;10273457;28;20426;-62
2023/04/16 06:54:03;;;;;;;5.50;3.88;;;;;;;11.71;66.24;100520.72;10279894;28;20150;-62
2023/04/16 06:59:06;;;;;;;7.32;4.63;;;;;;;11.70;66.55;100524.41;10276614;28;20043;-63
2023/04/16 07:04:08;;;;;;;6.35;4.10;;;;;;;11.80;66.49;100529.56;10276877;28;20055;-63
2023/04/16 07:09:09;;;;;;;6.68;4.07;;;;;;;11.84;66.52;100525.50;10273488;28;20051;-63
2023/04/16 07:14:11;;;;;;;7.70;4.80;;;;;;;11.93;66.22;100534.41;10270902;28;20143;-64
2023/04/16 07:19:12;;;;;;;9.52;4.70;;;;;;;11.96;66.36;100533.19;10277396;28;21009;-63
2023/04/16 07:24:14;;;;;;;8.20;5.15;;;;;;;11.96;66.58;100535.88;10274271;28;20109;-63
2023/04/16 07:29:15;;;;;;;10.15;5.40;;;;;;;12.02;66.29;100536.00;10276486;28;20086;-62
2023/04/16 07:34:17;;;;;;;10.13;5.32;;;;;;;12.08;66.26;100542.50;10256595;28;20043;-63
2023/04/16 07:39:18;;;;;;;8.30;5.78;;;;;;;12.15;65.91;100546.16;10276546;28;20596;-65
2023/04/16 07:44:20;;;;;;;9.40;5.05;;;;;;;12.22;65.76;100547.13;10277542;28;20075;-65
2023/04/16 07:49:21;;;;;;;10.45;5.88;;;;;;;12.37;65.58;100555.25;10282492;28;20126;-64
2023/04/16 07:54:22;;;;;;;9.98;5.45;;;;;;;12.43;65.71;100557.19;10283964;28;20066;-63
2023/04/16 07:59:24;;;;;;;10.63;6.35;;;;;;;12.42;65.32;100560.94;10280347;28;20078;-63
2023/04/16 08:04:26;;;;;;;10.32;6.35;;;;;;;12.46;65.43;100573.03;10271716;28;20474;-59
2023/04/16 08:09:28;;;;;;;10.13;5.30;;;;;;;12.67;65.12;100574.16;10278926;28;20054;-59
2023/04/16 08:14:29;;;;;;;8.82;5.10;;;;;;;12.65;64.35;100576.19;10279866;28;20057;-59
2023/04/16 08:19:31;;;;;;;10.10;5.82;;;;;;;12.71;64.74;100588.94;10277994;28;20506;-60
2023/04/16 08:24:32;;;;;;;10.20;5.15;;;;;;;12.73;64.75;100588.78;10279048;28;20141;-60
2023/04/16 08:29:33;;;;;;;8.85;5.78;;;;;;;12.67;64.58;100595.75;10277267;28;20419;-59
2023/04/16 08:34:35;;;;;;;10.00;5.75;;;;;;;12.80;64.63;100603.22;10283540;28;20055;-59
2023/04/16 08:39:37;;;;;;;9.63;6.07;;;;;;;12.81;64.54;100608.41;10259836;28;20158;-56
2023/04/16 08:44:46;;;;;;;11.13;5.93;;;;;;;12.92;63.89;100598.19;10276500;28;20061;-57
2023/04/16 08:49:52;;;;;;;10.27;6.28;;;;;;;12.89;64.03;100607.47;10266773;28;20039;-58
2023/04/16 08:55:36;;;;;;;9.38;6.05;;;;;;;13.01;63.79;100610.56;10259889;28;20066;-57
2023/04/16 09:00:39;;;;;;;9.80;5.65;;;;;;;13.21;63.31;100617.09;10254312;28;20081;-57
2023/04/16 09:05:42;;;;;;;10.90;5.97;;;;;;;13.16;63.61;100616.81;10258701;28;20590;-58
2023/04/16 09:10:44;;;;;;;7.07;5.20;;;;;;;13.36;63.02;100610.88;10279967;28;20129;-60
2023/04/16 09:15:46;;;;;;;10.32;5.57;;;;;;;13.37;63.10;100621.50;10275683;28;20090;-59
2023/04/16 09:20:48;;;;;;;11.48;6.32;;;;;;;13.55;62.57;100620.25;10281132;28;20154;-59
2023/04/16 09:25:50;;;;;;;8.75;5.90;;;;;;;13.86;61.90;100633.50;10278385;28;20035;-59
2023/04/16 09:31:06;;;;;;;11.18;5.97;;;;;;;14.07;61.72;100633.53;10276186;28;20609;-60
2023/04/16 09:36:09;;;;;;;9.05;5.10;;;;;;;14.27;61.34;100644.53;10274220;28;20084;-61
2023/04/16 09:41:10;;;;;;;10.45;5.82;;;;;;;14.31;61.21;100642.28;10276445;28;20109;-60
2023/04/16 09:46:12;;;;;;;9.75;6.05;;;;;;;14.36;61.07;100647.97;10278625;28;20082;-60
2023/04/16 09:51:13;;;;;;;8.57;5.60;;;;;;;14.31;61.20;100652.28;10274696;28;20051;-59
2023/04/16 09:56:14;;;;;;;9.70;5.68;;;;;;;14.15;61.14;100647.94;10274668;28;20085;-60
2023/04/16 10:01:17;;;;;;;9.48;5.22;;;;;;;14.03;61.18;100648.44;10272452;28;20474;-60
2023/04/16 10:06:21;;;;;;;10.05;6.45;;;;;;;14.01;61.34;100664.03;10273456;28;20095;-60
2023/04/16 10:11:23;;;;;;;11.60;5.55;;;;;;;14.09;60.86;100666.59;10273450;28;20063;-60
2023/04/16 10:16:24;;;;;;;7.82;4.97;;;;;;;14.06;61.19;100674.28;10271825;28;20051;-60
2023/04/16 10:21:32;;;;;;;9.57;5.70;;;;;;;13.96;61.29;100681.84;10273040;28;20051;-60
2023/04/16 10:26:34;;;;;;;10.05;5.85;;;;;;;14.08;60.84;100686.56;10271633;28;20141;-60
2023/04/16 10:31:37;;;;;;;9.57;5.25;;;;;;;14.02;60.84;100681.94;10273400;28;20086;-60
2023/04/16 10:36:39;;;;;;;9.07;5.85;;;;;;;14.12;60.74;100691.56;10272360;28;20094;-60
2023/04/16 10:41:41;;;;;;;9.30;5.85;;;;;;;14.02;60.79;100695.44;10274654;28;20577;-60
2023/04/16 10:46:48;;;;;;;8.23;5.07;;;;;;;13.96;60.96;100701.63;10266503;28;20129;-59
2023/04/16 10:51:53;;;;;;;;;;;;;;;13.92;61.31;100700.31;10275103;28;20055;-71
2023/04/16 10:57:01;;;;;;;8.43;5.78;;;;;;;13.98;60.69;100706.81;10274459;28;19930;-65
2023/04/16 11:02:19;;;;;;;12.07;6.68;;;;;;;13.80;61.86;100709.91;10273261;28;20101;-65
2023/04/16 11:07:32;;;;;;;11.55;6.28;;;;;;;13.72;62.52;100710.03;10258594;28;20102;-65
2023/04/16 11:12:37;;;;;;;13.23;7.90;;;;;;;13.65;63.13;100708.06;10276219;28;20050;-65
2023/04/16 11:17:46;;;;;;;13.73;7.63;;;;;;;13.71;63.38;100711.06;10257847;28;20154;-66
2023/04/16 11:22:49;;;;;;;12.30;7.38;;;;;;;13.84;63.26;100709.38;10273905;28;20084;-64
2023/04/16 11:27:51;;;;;;;11.35;8.32;;;;;;;13.83;63.47;100721.19;10272355;28;20051;-63
2023/04/16 11:32:53;;;;;;;15.65;8.23;;;;;;;13.97;63.46;100716.78;10263621;28;20058;-63
2023/04/16 11:37:56;;;;;;;19.60;10.02;;;;;;;14.01;63.85;100725.38;10283198;28;20134;-65
2023/04/16 11:43:02;;;;;;;10.10;7.35;;;;;;;14.10;64.12;100726.94;10299868;28;20051;-67
2023/04/16 11:48:03;;;;;;;12.57;7.45;;;;;;;14.11;64.45;100723.19;10303577;28;20050;-66
2023/04/16 11:53:05;;;;;;;12.50;8.20;;;;;;;13.99;64.84;100724.72;10295982;28;20379;-65
2023/04/16 11:58:16;;;;;;;12.40;7.00;;;;;;;14.08;65.11;100726.28;10296321;28;20050;-63
2023/04/16 12:03:17;;;;;;;13.13;8.10;;;;;;;14.14;65.30;100730.06;10291597;28;20050;-67
2023/04/16 12:08:32;;;;;;;14.43;7.63;;;;;;;14.29;65.40;100729.00;10308980;28;20707;-64
2023/04/16 12:13:38;;;;;;;11.93;7.68;;;;;;;14.41;65.40;100728.50;10299183;28;20051;-65
2023/04/16 12:18:57;;;;;;;11.37;8.33;;;;;;;14.43;65.42;100731.88;10297173;28;20061;-67
2023/04/16 12:23:59;;;;;;;12.73;8.27;;;;;;;14.48;65.45;100730.25;10276503;28;20125;-67
2023/04/16 12:29:14;;;;;;;14.93;9.25;;;;;;;14.79;64.88;100737.25;10291908;28;20054;-64
2023/04/16 12:34:17;;;;;;;12.73;8.90;;;;;;;14.92;64.50;100735.69;10312690;28;20043;-65
2023/04/16 12:39:18;;;;;;;15.10;9.30;;;;;;;15.01;64.22;100739.97;10314441;28;20046;-67
2023/04/16 12:44:20;;;;;;;16.30;10.43;;;;;;;15.11;63.72;100736.91;10310575;28;20538;-67
2023/04/16 12:49:21;;;;;;;14.98;11.02;;;;;;;15.12;63.40;100741.28;10300604;28;20042;-66
2023/04/16 12:54:23;;;;;;;17.38;11.77;;;;;;;15.19;63.00;100739.47;10303587;28;20046;-64
2023/04/16 12:59:24;;;;;;;17.30;11.85;;;;;;;15.44;62.51;100739.84;10300272;28;20361;-67
2023/04/16 13:04:26;;;;;;;16.77;11.55;;;;;;;15.63;61.85;100731.00;10316392;28;20031;-64
2023/04/16 13:09:27;;;;;;;17.17;12.07;;;;;;;15.70;61.69;100730.19;10332003;28;20093;-63
2023/04/16 13:14:29;;;;;;;16.77;11.50;;;;;;;15.95;61.08;100734.09;10324709;28;20042;-63
2023/04/16 13:19:30;;;;;;;18.00;11.00;;;;;;;16.16;60.31;100730.44;10330836;28;20054;-64
2023/04/16 13:24:31;;;;;;;17.48;10.73;;;;;;;16.28;59.65;100724.44;10309935;28;20042;-67
2023/04/16 13:29:35;;;;;;;15.23;10.38;;;;;;;16.45;59.08;100731.16;10300475;28;20117;-66
2023/04/16 13:34:36;;;;;;;15.38;10.65;;;;;;;16.68;58.27;100722.63;10296014;28;20145;-67
2023/04/16 13:39:38;;;;;;;13.48;10.10;;;;;;;16.83;57.72;100728.72;10287548;28;20065;-67
2023/04/16 13:44:39;;;;;;;16.73;9.68;;;;;;;16.76;57.43;100729.72;10289584;28;20051;-65
2023/04/16 13:49:41;;;;;;;12.93;9.15;;;;;;;16.68;56.94;100735.34;10289366;28;20046;-65
2023/04/16 13:54:42;;;;;;;14.30;10.13;;;;;;;16.80;57.22;100737.25;10297302;28;20316;-66
2023/04/16 13:59:44;;;;;;;15.55;11.18;;;;;;;16.89;56.82;100731.66;10290301;28;20065;-67
2023/04/16 14:04:45;;;;;;;18.23;11.75;;;;;;;16.90;57.03;100736.88;10278397;28;20055;-67
2023/04/16 14:09:47;;;;;;;16.45;10.85;;;;;;;16.84;57.58;100738.56;10290573;28;20046;-66
2023/04/16 14:14:48;;;;;;;17.52;11.73;;;;;;;16.76;57.20;100749.56;10287824;28;20047;-67
2023/04/16 14:19:51;;;;;;;12.40;8.80;;;;;;;16.54;57.16;100754.31;10270151;28;20110;-67
2023/04/16 14:24:52;;;;;;;12.60;9.13;;;;;;;16.61;57.08;100751.66;10289712;28;20454;-67
2023/04/16 14:29:53;;;;;;;14.82;9.43;;;;;;;16.79;56.40;100751.88;10292055;28;20078;-67
2023/04/16 14:34:55;;;;;;;14.75;9.70;;;;;;;16.98;56.09;100750.25;10298190;28;20051;-65
2023/04/16 14:39:56;;;;;;;12.25;7.97;;;;;;;16.90;55.98;100755.03;10304914;28;20046;-65
2023/04/16 14:44:58;;;;;;;11.73;7.80;;;;;;;16.97;55.55;100754.00;10293131;28;20114;-65
2023/04/16 14:50:00;;;;;;;11.27;7.80;;;;;;;16.84;55.43;100751.28;10300779;28;20051;-67
2023/04/16 14:55:01;;;;;;;10.55;7.45;;;;;;;16.89;55.16;100751.50;10295204;28;20090;-67
2023/04/16 15:00:06;;;;;;;9.95;7.10;;;;;;;16.78;55.52;100747.47;10288869;28;20114;-67
2023/04/16 15:05:09;;;;;;;9.50;6.93;;;;;;;16.97;54.95;100748.56;10283008;28;20093;-67
2023/04/16 15:10:11;;;;;;;7.72;5.97;;;;;;;16.84;54.88;100751.28;10292552;28;20034;-68
2023/04/16 15:15:13;;;;;;;8.20;6.55;;;;;;;16.81;54.72;100754.38;10295670;28;20047;-68
2023/04/16 15:20:14;;;;;;;11.88;7.15;;;;;;;16.78;54.41;100761.03;10284494;28;20478;-68
2023/04/16 15:25:16;;;;;;;9.95;6.63;;;;;;;16.78;54.30;100761.03;10289131;28;20453;-65
2023/04/16 15:30:17;;;;;;;12.32;8.48;;;;;;;16.65;54.40;100764.59;10301709;28;20055;-67
2023/04/16 15:35:19;;;;;;;7.88;5.55;;;;;;;16.56;54.42;100765.81;10298509;28;20109;-67
2023/04/16 15:40:21;;;;;;;7.20;5.75;;;;;;;16.46;54.38;100765.38;10292920;28;20536;-67
2023/04/16 15:45:22;;;;;;;9.10;5.72;;;;;;;16.49;54.21;100770.41;10286720;28;20066;-68
2023/04/16 15:50:24;;;;;;;7.60;4.68;;;;;;;16.41;54.44;100776.00;10288720;28;20054;-65
2023/04/16 15:55:25;;;;;;;6.72;4.88;;;;;;;16.23;54.21;100773.84;10275156;28;20039;-68
2023/04/16 16:00:27;;;;;;;7.00;5.22;;;;;;;16.30;54.14;100776.59;10275604;28;20051;-67
2023/04/16 16:05:28;;;;;;;8.98;5.45;;;;;;;16.32;53.92;100780.78;10288369;28;20118;-69
2023/04/16 16:10:30;;;;;;;8.63;5.47;;;;;;;16.18;53.75;100787.19;10272929;28;20043;-68
2023/04/16 16:15:31;;;;;;;8.05;5.40;;;;;;;16.16;53.28;100787.41;10281248;28;20179;-67
2023/04/16 16:20:33;;;;;;;10.50;6.70;;;;;;;16.08;53.13;100784.84;10274709;28;20055;-66
2023/04/16 16:25:35;;;;;;;10.00;6.13;;;;;;;15.93;53.49;100797.72;10286174;28;20043;-68
2023/04/16 16:30:36;;;;;;;11.40;6.63;;;;;;;15.72;53.92;100793.16;10287856;28;20155;-68
2023/04/16 16:35:38;;;;;;;10.60;6.55;;;;;;;15.65;53.99;100791.25;10288148;28;20442;-68
2023/04/16 16:40:39;;;;;;;7.95;6.28;;;;;;;15.64;53.96;100794.19;10303913;28;20042;-69
2023/04/16 16:45:40;;;;;;;10.48;7.57;;;;;;;15.55;53.77;100793.47;10286828;28;20051;-68
2023/04/16 16:50:42;;;;;;;10.43;7.10;;;;;;;15.59;53.90;100802.06;10287150;28;20059;-67
2023/04/16 16:55:43;;;;;;;11.88;7.40;;;;;;;15.56;53.97;100797.88;10300493;28;20051;-68
2023/04/16 17:00:45;;;;;;;11.57;6.97;;;;;;;15.58;54.12;100805.78;10289511;28;20055;-66
2023/04/16 17:05:46;;;;;;;9.70;7.03;;;;;;;15.57;54.18;100812.25;10306927;28;20082;-68
2023/04/16 17:10:47;;;;;;;11.23;6.78;;;;;;;15.56;54.39;100808.72;10292404;28;20046;-65
2023/04/16 17:15:49;;;;;;;10.60;7.18;;;;;;;15.59;54.44;100818.31;10303212;28;20119;-66
2023/04/16 17:20:50;;;;;;;15.93;6.53;;;;;;;15.56;54.57;100821.41;10306201;28;20498;-69
2023/04/16 17:31:10;;;;;;;12.30;7.13;;;;;;;15.29;55.13;100826.63;10704889;23;20038;-68
2023/04/16 17:36:11;;;;;;;12.07;7.35;;;;;;;15.30;55.05;100831.00;10576800;23;20039;-68
2023/04/16 17:41:12;;;;;;;11.80;7.55;;;;;;;15.28;54.81;100835.78;10301865;28;20403;-67
2023/04/16 17:46:14;;;;;;;10.23;6.95;;;;;;;15.13;55.20;100846.69;10316685;28;20043;-67
2023/04/16 17:51:16;;;;;;;9.25;6.10;;;;;;;15.07;55.36;100848.31;10301436;28;20228;-68
2023/04/16 17:56:17;;;;;;;9.23;6.65;;;;;;;15.06;55.36;100851.19;10295405;28;20031;-68
2023/04/16 18:01:19;;;;;;;10.82;7.15;;;;;;;15.03;55.59;100851.59;10301897;28;20100;-67
2023/04/16 18:06:20;;;;;;;10.77;6.65;;;;;;;14.98;55.55;100857.56;10290469;28;20116;-68
2023/04/16 18:11:21;;;;;;;11.15;7.47;;;;;;;14.97;55.59;100861.31;10302960;28;20050;-68
2023/04/16 18:16:23;;;;;;;11.98;6.65;;;;;;;14.94;55.72;100864.41;10314042;28;20046;-65
2023/04/16 18:21:24;;;;;;;10.20;7.88;;;;;;;14.90;56.01;100876.66;10315988;28;20058;-65
2023/04/16 18:26:26;;;;;;;11.00;7.07;;;;;;;15.00;56.30;100889.88;10323263;28;20051;-64
2023/04/16 18:31:30;;;;;;;10.52;7.57;;;;;;;14.88;57.13;100898.50;10320547;28;20066;-64
2023/04/16 18:36:32;;;;;;;15.82;9.20;;;;;;;14.44;58.91;100901.25;10302210;28;20093;-64
2023/04/16 18:41:34;;;;;;;13.73;9.60;;;;;;;14.22;59.78;100897.63;10316297;28;20055;-64
2023/04/16 18:46:36;;;;;;;14.23;9.27;;;;;;;14.10;60.38;100910.78;10321200;28;20051;-68
2023/04/16 18:51:38;;;;;;;18.25;9.57;;;;;;;13.87;60.56;100917.06;10293813;28;20109;-66
2023/04/16 18:56:39;;;;;;;16.75;10.52;;;;;;;13.77;61.33;100921.91;10261808;28;20039;-66
2023/04/16 19:01:40;;;;;;;18.50;11.13;;;;;;;13.65;61.66;100929.59;10273951;28;20671;-65
2023/04/16 19:06:42;;;;;;;15.82;11.27;;;;;;;13.52;61.98;100921.25;10263909;28;20131;-67
2023/04/16 19:11:43;;;;;;;19.67;11.52;;;;;;;13.43;62.39;100925.06;10281056;28;20454;-67
2023/04/16 19:16:46;;;;;;;17.83;10.52;;;;;;;13.44;62.59;100924.03;10279039;28;20046;-65
2023/04/16 19:21:48;;;;;;;19.27;11.27;;;;;;;13.41;62.61;100927.09;10283587;28;20062;-67
2023/04/16 19:26:49;;;;;;;16.70;11.52;;;;;;;13.31;63.00;100931.88;10281380;28;20050;-66
2023/04/16 19:31:51;;;;;;;19.35;12.45;;;;;;;13.33;63.39;100938.81;10277048;28;20113;-66
2023/04/16 19:36:52;;;;;;;18.73;12.30;;;;;;;13.24;63.57;100937.97;10278790;28;20058;-66
2023/04/16 19:41:54;;;;;;;20.08;12.32;;;;;;;13.23;63.46;100941.72;10285877;28;20074;-66
2023/04/16 19:46:56;;;;;;;21.25;12.30;;;;;;;13.18;64.06;100943.25;10252720;28;20063;-67
2023/04/16 19:51:57;;;;;;;17.75;10.82;;;;;;;13.16;63.56;100942.59;10270761;28;20074;-66
2023/04/16 19:57:00;;;;;;;22.42;12.40;;;;;;;13.06;64.17;100942.81;10270481;28;20051;-66
2023/04/16 20:02:01;;;;;;;21.92;11.73;;;;;;;12.98;64.26;100949.09;10283796;28;20086;-65
2023/04/16 20:07:03;;;;;;;17.98;11.93;;;;;;;12.97;64.12;100943.88;10291521;28;20058;-65
2023/04/16 20:12:04;;;;;;;21.35;11.60;;;;;;;12.99;64.22;100947.25;10285167;28;20210;-65
2023/04/16 20:17:08;;;;;;;23.38;12.80;;;;;;;13.01;64.20;100947.91;10282636;28;20074;-66
2023/04/16 20:22:10;;;;;;;20.92;12.32;;;;;;;12.93;64.74;100945.25;10266797;28;20046;-65
2023/04/16 20:27:13;;;;;;;22.40;11.45;;;;;;;12.81;64.81;100948.34;10264381;28;20078;-66
2023/04/16 20:32:15;;;;;;;19.80;12.35;;;;;;;12.79;65.28;100947.66;10267881;28;20658;-65
2023/04/16 20:37:16;;;;;;;22.42;13.25;;;;;;;12.81;64.88;100942.94;10284064;28;20086;-67
2023/04/16 20:42:20;;;;;;;25.05;12.45;;;;;;;12.78;65.55;100946.00;10283403;28;20050;-65
2023/04/16 20:47:22;;;;;;;24.33;11.90;;;;;;;12.76;65.75;100945.34;10286804;28;20109;-65
2023/04/16 20:52:24;;;;;;;21.00;12.95;;;;;;;12.70;65.51;100946.88;10282492;28;20526;-65
2023/04/16 20:57:26;;;;;;;26.13;13.55;;;;;;;12.68;65.98;100942.69;10284040;28;20051;-65
2023/04/16 21:02:28;;;;;;;23.27;13.63;;;;;;;12.63;65.98;100942.34;10287018;28;20055;-65
2023/04/16 21:07:30;;;;;;;22.95;13.25;;;;;;;12.56;66.62;100947.63;10283772;28;20481;-66
2023/04/16 21:12:31;;;;;;;21.40;12.45;;;;;;;12.47;66.43;100941.38;10286902;28;20078;-66
2023/04/16 21:17:32;;;;;;;25.00;12.68;;;;;;;12.55;66.46;100932.44;10264675;28;20086;-64
2023/04/16 21:22:34;;;;;;;18.42;11.85;;;;;;;12.45;66.47;100935.34;10268756;28;20050;-66
2023/04/16 21:27:35;;;;;;;20.90;11.50;;;;;;;12.46;66.92;100941.56;10283264;28;20047;-66
2023/04/16 21:32:36;;;;;;;18.75;11.13;;;;;;;12.46;66.39;100937.03;10279507;28;20059;-66
2023/04/16 21:37:38;;;;;;;17.90;11.00;;;;;;;12.42;66.72;100945.63;10281054;28;20047;-65
2023/04/16 21:42:41;;;;;;;21.73;11.57;;;;;;;12.42;66.80;100941.09;10282369;28;20560;-65
2023/04/16 21:47:42;;;;;;;21.10;11.32;;;;;;;12.46;66.37;100942.44;10284020;28;20056;-64
2023/04/16 21:52:45;;;;;;;20.55;13.18;;;;;;;12.49;66.59;100942.06;10279188;28;20070;-64
2023/04/16 21:57:46;;;;;;;21.75;12.05;;;;;;;12.43;66.66;100953.53;10276216;28;20055;-65
2023/04/16 22:02:47;;;;;;;18.60;11.68;;;;;;;12.39;67.10;100946.81;10269735;28;20070;-66
2023/04/16 22:07:50;;;;;;;23.10;12.95;;;;;;;12.41;67.47;100943.97;10280726;28;20051;-66
2023/04/16 22:12:53;;;;;;;28.58;13.77;;;;;;;12.32;67.01;100953.91;10277772;28;20069;-66
2023/04/16 22:17:55;;;;;;;18.95;12.45;;;;;;;12.23;67.34;100949.56;10279615;28;20063;-65
2023/04/16 22:22:57;;;;;;;26.05;13.52;;;;;;;12.21;67.77;100956.97;10277179;28;20086;-65
2023/04/16 22:28:00;;;;;;;23.13;12.60;;;;;;;12.17;67.74;100947.56;10276505;28;20512;-65
2023/04/16 22:33:02;;;;;;;25.88;14.48;;;;;;;12.19;67.92;100948.22;10278183;28;20058;-65
2023/04/16 22:38:04;;;;;;;21.70;14.07;;;;;;;12.15;68.29;100939.63;10276310;28;20078;-65
2023/04/16 22:43:05;;;;;;;21.60;13.15;;;;;;;12.17;67.87;100947.56;10280902;28;20059;-64
2023/04/16 22:48:07;;;;;;;21.80;12.88;;;;;;;12.18;68.48;100946.53;10279988;28;20078;-67
2023/04/16 22:53:08;;;;;;;20.92;13.30;;;;;;;12.17;68.29;100937.63;10278029;28;20055;-65
2023/04/16 22:58:10;;;;;;;23.02;13.98;;;;;;;12.17;68.04;100939.47;10279075;28;20098;-63
2023/04/16 23:03:11;;;;;;;23.27;14.05;;;;;;;12.20;68.19;100939.13;10276730;28;20534;-65